GLO1957 SBKP-SBGL
Flight info
| Callsign | GLO1957 |
|---|---|
| Flight time | 1h 0m |
| Altitude | 33000 |
| Route | UREMI UZ42 VUREP |
| Aircraft | B738/M-SDFGIKLORWXY/LB1 |
Departure
| Time | 2026-05-08 14:23 |
|---|---|
| Airport | Viracopos International Airport (SBKP) |
Arrival
| Time | 2026-05-08 15:23 |
|---|---|
| Airport | Rio Galeão – Tom Jobim International Airport (SBGL) |
| Time | Latitude | Longitude | Altitude | Speed | Heading |
|---|---|---|---|---|---|
| 2026-05-08 14:05 | -23.00426 | -47.14821 | 2153 ft | 0 kts | 218° |
| 2026-05-08 14:11 | -23.00425 | -47.14821 | 2156 ft | 0 kts | 218° |
| 2026-05-08 14:11 | -23.00413 | -47.14809 | 2152 ft | 2 kts | 231° |
| 2026-05-08 14:12 | -23.00404 | -47.14794 | 2151 ft | 2 kts | 256° |
| 2026-05-08 14:12 | -23.00404 | -47.14776 | 2152 ft | 2 kts | 293° |
| 2026-05-08 14:12 | -23.00411 | -47.14763 | 2148 ft | 1 kts | 306° |
| 2026-05-08 14:12 | -23.00413 | -47.14760 | 2148 ft | 0 kts | 306° |
| 2026-05-08 14:14 | -23.00397 | -47.14783 | 2149 ft | 9 kts | 307° |
| 2026-05-08 14:14 | -23.00353 | -47.14846 | 2155 ft | 11 kts | 308° |
| 2026-05-08 14:14 | -23.00303 | -47.14914 | 2156 ft | 12 kts | 308° |
| 2026-05-08 14:15 | -23.00253 | -47.14985 | 2152 ft | 12 kts | 306° |
| 2026-05-08 14:15 | -23.00182 | -47.15004 | 2156 ft | 12 kts | 31° |
| 2026-05-08 14:15 | -23.00116 | -47.14951 | 2156 ft | 12 kts | 37° |
| 2026-05-08 14:15 | -23.00053 | -47.14897 | 2153 ft | 11 kts | 37° |
| 2026-05-08 14:16 | -23.00012 | -47.14830 | 2154 ft | 11 kts | 82° |
| 2026-05-08 14:16 | -23.00034 | -47.14753 | 2152 ft | 11 kts | 127° |
| 2026-05-08 14:16 | -23.00087 | -47.14678 | 2154 ft | 13 kts | 130° |
| 2026-05-08 14:16 | -23.00148 | -47.14597 | 2153 ft | 15 kts | 129° |
| 2026-05-08 14:17 | -23.00213 | -47.14503 | 2156 ft | 16 kts | 128° |
| 2026-05-08 14:17 | -23.00286 | -47.14401 | 2156 ft | 18 kts | 127° |
| 2026-05-08 14:17 | -23.00362 | -47.14294 | 2155 ft | 18 kts | 128° |
| 2026-05-08 14:17 | -23.00436 | -47.14191 | 2155 ft | 17 kts | 127° |
| 2026-05-08 14:18 | -23.00507 | -47.14091 | 2152 ft | 16 kts | 128° |
| 2026-05-08 14:18 | -23.00575 | -47.13995 | 2154 ft | 16 kts | 127° |
| 2026-05-08 14:18 | -23.00642 | -47.13904 | 2156 ft | 15 kts | 128° |
| 2026-05-08 14:18 | -23.00705 | -47.13815 | 2152 ft | 14 kts | 127° |
| 2026-05-08 14:19 | -23.00766 | -47.13730 | 2152 ft | 14 kts | 128° |
| 2026-05-08 14:19 | -23.00823 | -47.13649 | 2154 ft | 13 kts | 127° |
| 2026-05-08 14:19 | -23.00880 | -47.13572 | 2154 ft | 13 kts | 130° |
| 2026-05-08 14:19 | -23.00934 | -47.13498 | 2150 ft | 13 kts | 128° |
| 2026-05-08 14:20 | -23.00991 | -47.13418 | 2154 ft | 15 kts | 128° |
| 2026-05-08 14:20 | -23.01059 | -47.13323 | 2152 ft | 17 kts | 128° |
| 2026-05-08 14:20 | -23.01137 | -47.13213 | 2151 ft | 20 kts | 128° |
| 2026-05-08 14:20 | -23.01221 | -47.13097 | 2151 ft | 19 kts | 128° |
| 2026-05-08 14:21 | -23.01300 | -47.12984 | 2156 ft | 18 kts | 127° |
| 2026-05-08 14:21 | -23.01374 | -47.12882 | 2156 ft | 13 kts | 127° |
| 2026-05-08 14:21 | -23.01356 | -47.12804 | 2153 ft | 13 kts | 15° |
| 2026-05-08 14:21 | -23.01272 | -47.12830 | 2152 ft | 12 kts | 336° |
| 2026-05-08 14:22 | -23.01202 | -47.12845 | 2152 ft | 8 kts | 22° |
| 2026-05-08 14:22 | -23.01157 | -47.12867 | 2153 ft | 8 kts | 307° |
| 2026-05-08 14:22 | -23.01114 | -47.12928 | 2155 ft | 24 kts | 308° |
| 2026-05-08 14:22 | -23.00862 | -47.13278 | 2156 ft | 93 kts | 308° |
| 2026-05-08 14:23 | -23.00337 | -47.14014 | 2155 ft | 151 kts | 307° |
| 2026-05-08 14:23 | -22.99631 | -47.15016 | 2460 ft | 175 kts | 309° |
| 2026-05-08 14:23 | -22.98927 | -47.16091 | 3313 ft | 174 kts | 304° |
| 2026-05-08 14:23 | -22.98775 | -47.17447 | 3986 ft | 202 kts | 260° |
| 2026-05-08 14:24 | -22.99507 | -47.18900 | 4253 ft | 235 kts | 245° |
| 2026-05-08 14:24 | -23.00354 | -47.20492 | 4673 ft | 248 kts | 249° |
| 2026-05-08 14:24 | -23.01178 | -47.22235 | 5100 ft | 269 kts | 251° |
| 2026-05-08 14:24 | -23.02216 | -47.23990 | 5789 ft | 288 kts | 230° |
| 2026-05-08 14:25 | -23.03781 | -47.25370 | 6751 ft | 288 kts | 224° |
| 2026-05-08 14:25 | -23.05350 | -47.26731 | 7575 ft | 290 kts | 225° |
| 2026-05-08 14:25 | -23.06924 | -47.28124 | 8358 ft | 294 kts | 225° |
| 2026-05-08 14:25 | -23.08517 | -47.29543 | 9131 ft | 298 kts | 225° |
| 2026-05-08 14:26 | -23.10110 | -47.30944 | 9955 ft | 301 kts | 220° |
| 2026-05-08 14:26 | -23.12064 | -47.31904 | 10465 ft | 325 kts | 194° |
| 2026-05-08 14:26 | -23.14419 | -47.31798 | 10626 ft | 357 kts | 164° |
| 2026-05-08 14:26 | -23.16632 | -47.30443 | 10899 ft | 376 kts | 135° |
| 2026-05-08 14:27 | -23.18297 | -47.28234 | 10976 ft | 379 kts | 123° |
| 2026-05-08 14:27 | -23.19798 | -47.25886 | 10982 ft | 377 kts | 119° |
| 2026-05-08 14:27 | -23.20668 | -47.23261 | 10976 ft | 368 kts | 92° |
| 2026-05-08 14:27 | -23.20510 | -47.20526 | 11013 ft | 363 kts | 79° |
| 2026-05-08 14:28 | -23.20337 | -47.17768 | 10988 ft | 368 kts | 85° |
| 2026-05-08 14:28 | -23.20317 | -47.14984 | 10999 ft | 369 kts | 86° |
| 2026-05-08 14:28 | -23.20337 | -47.12195 | 10984 ft | 368 kts | 87° |
| 2026-05-08 14:28 | -23.20355 | -47.09415 | 10987 ft | 367 kts | 86° |
| 2026-05-08 14:29 | -23.20361 | -47.06643 | 10989 ft | 366 kts | 86° |
| 2026-05-08 14:29 | -23.20361 | -47.03877 | 10986 ft | 366 kts | 86° |
| 2026-05-08 14:29 | -23.20648 | -47.01166 | 10977 ft | 371 kts | 105° |
| 2026-05-08 14:29 | -23.21875 | -46.98698 | 11019 ft | 375 kts | 129° |
| 2026-05-08 14:30 | -23.23860 | -46.96815 | 11437 ft | 382 kts | 149° |
| 2026-05-08 14:30 | -23.26220 | -46.95493 | 12221 ft | 382 kts | 155° |
| 2026-05-08 14:30 | -23.28644 | -46.94284 | 12877 ft | 385 kts | 156° |
| 2026-05-08 14:30 | -23.31091 | -46.93035 | 13469 ft | 390 kts | 152° |
| 2026-05-08 14:31 | -23.33212 | -46.91200 | 14032 ft | 392 kts | 128° |
| 2026-05-08 14:31 | -23.34732 | -46.88745 | 14655 ft | 391 kts | 119° |
| 2026-05-08 14:31 | -23.36117 | -46.86178 | 15222 ft | 394 kts | 118° |
| 2026-05-08 14:32 | -23.38862 | -46.80965 | 16353 ft | 400 kts | 118° |
| 2026-05-08 14:32 | -23.40259 | -46.78335 | 16916 ft | 403 kts | 118° |
| 2026-05-08 14:32 | -23.41682 | -46.75680 | 17445 ft | 406 kts | 118° |
| 2026-05-08 14:32 | -23.43098 | -46.73053 | 18011 ft | 409 kts | 118° |
| 2026-05-08 14:33 | -23.44546 | -46.70375 | 18559 ft | 411 kts | 118° |
| 2026-05-08 14:33 | -23.46003 | -46.67683 | 19002 ft | 415 kts | 119° |
| 2026-05-08 14:33 | -23.47480 | -46.64954 | 19398 ft | 420 kts | 119° |
| 2026-05-08 14:33 | -23.48965 | -46.62210 | 19843 ft | 423 kts | 119° |
| 2026-05-08 14:34 | -23.50465 | -46.59437 | 20296 ft | 426 kts | 119° |
| 2026-05-08 14:34 | -23.51974 | -46.56644 | 20723 ft | 429 kts | 120° |
| 2026-05-08 14:34 | -23.53498 | -46.53820 | 21121 ft | 434 kts | 120° |
| 2026-05-08 14:34 | -23.55034 | -46.50973 | 21507 ft | 439 kts | 119° |
| 2026-05-08 14:35 | -23.56592 | -46.48085 | 21875 ft | 444 kts | 119° |
| 2026-05-08 14:35 | -23.58048 | -46.45147 | 22279 ft | 446 kts | 109° |
| 2026-05-08 14:35 | -23.58718 | -46.41865 | 22674 ft | 444 kts | 90° |
| 2026-05-08 14:35 | -23.58504 | -46.38530 | 23096 ft | 440 kts | 74° |
| 2026-05-08 14:36 | -23.57809 | -46.35279 | 23475 ft | 442 kts | 72° |
| 2026-05-08 14:36 | -23.57050 | -46.32008 | 23735 ft | 448 kts | 72° |
| 2026-05-08 14:36 | -23.56271 | -46.28701 | 24044 ft | 452 kts | 72° |
| 2026-05-08 14:36 | -23.55496 | -46.25367 | 24414 ft | 453 kts | 72° |
| 2026-05-08 14:37 | -23.54732 | -46.22024 | 24771 ft | 455 kts | 72° |
| 2026-05-08 14:37 | -23.53978 | -46.18665 | 25183 ft | 455 kts | 72° |
| 2026-05-08 14:37 | -23.53232 | -46.15313 | 25636 ft | 455 kts | 72° |
| 2026-05-08 14:37 | -23.52498 | -46.12000 | 26069 ft | 455 kts | 72° |
| 2026-05-08 14:38 | -23.51755 | -46.08641 | 26512 ft | 454 kts | 72° |
| 2026-05-08 14:38 | -23.51013 | -46.05294 | 26961 ft | 454 kts | 72° |
| 2026-05-08 14:38 | -23.50270 | -46.01948 | 27385 ft | 454 kts | 72° |
| 2026-05-08 14:38 | -23.49524 | -45.98595 | 27813 ft | 454 kts | 72° |
| 2026-05-08 14:39 | -23.48789 | -45.95293 | 28257 ft | 454 kts | 73° |
| 2026-05-08 14:39 | -23.48046 | -45.91961 | 28755 ft | 453 kts | 73° |
| 2026-05-08 14:39 | -23.47298 | -45.88610 | 29001 ft | 456 kts | 73° |
| 2026-05-08 14:39 | -23.46544 | -45.85240 | 28989 ft | 458 kts | 73° |
| 2026-05-08 14:40 | -23.45049 | -45.78555 | 28986 ft | 451 kts | 73° |
| 2026-05-08 14:40 | -23.43556 | -45.71903 | 28982 ft | 452 kts | 73° |
| 2026-05-08 14:41 | -23.42054 | -45.65227 | 28993 ft | 456 kts | 73° |
| 2026-05-08 14:41 | -23.40551 | -45.58547 | 28979 ft | 456 kts | 73° |
| 2026-05-08 14:42 | -23.39038 | -45.51844 | 28975 ft | 455 kts | 73° |
| 2026-05-08 14:42 | -23.37587 | -45.45158 | 28980 ft | 453 kts | 74° |
| 2026-05-08 14:43 | -23.36179 | -45.38476 | 28969 ft | 452 kts | 74° |
| 2026-05-08 14:43 | -23.34761 | -45.31830 | 28983 ft | 450 kts | 75° |
| 2026-05-08 14:44 | -23.33345 | -45.25230 | 28957 ft | 439 kts | 75° |
| 2026-05-08 14:44 | -23.32662 | -45.22043 | 28849 ft | 428 kts | 75° |
| 2026-05-08 14:44 | -23.31998 | -45.18952 | 28627 ft | 421 kts | 74° |
| 2026-05-08 14:45 | -23.31333 | -45.15862 | 28269 ft | 418 kts | 75° |
| 2026-05-08 14:45 | -23.30672 | -45.12797 | 27931 ft | 414 kts | 74° |
| 2026-05-08 14:45 | -23.30018 | -45.09762 | 27547 ft | 411 kts | 74° |
| 2026-05-08 14:45 | -23.29366 | -45.06745 | 27174 ft | 408 kts | 74° |
| 2026-05-08 14:46 | -23.28718 | -45.03749 | 26818 ft | 405 kts | 74° |
| 2026-05-08 14:46 | -23.28073 | -45.00768 | 26456 ft | 403 kts | 74° |
| 2026-05-08 14:46 | -23.27433 | -44.97809 | 26085 ft | 401 kts | 74° |
| 2026-05-08 14:46 | -23.26795 | -44.94865 | 25741 ft | 398 kts | 74° |
| 2026-05-08 14:47 | -23.26162 | -44.91943 | 25354 ft | 395 kts | 74° |
| 2026-05-08 14:47 | -23.25534 | -44.89049 | 25044 ft | 392 kts | 74° |
| 2026-05-08 14:47 | -23.24915 | -44.86203 | 24658 ft | 391 kts | 74° |
| 2026-05-08 14:47 | -23.24291 | -44.83328 | 24314 ft | 389 kts | 73° |
| 2026-05-08 14:48 | -23.23668 | -44.80472 | 23969 ft | 389 kts | 73° |
| 2026-05-08 14:48 | -23.23045 | -44.77613 | 23624 ft | 387 kts | 74° |
| 2026-05-08 14:48 | -23.22424 | -44.74764 | 23189 ft | 386 kts | 73° |
| 2026-05-08 14:48 | -23.21804 | -44.71926 | 22810 ft | 384 kts | 73° |
| 2026-05-08 14:49 | -23.21190 | -44.69109 | 22430 ft | 381 kts | 73° |
| 2026-05-08 14:49 | -23.20580 | -44.66316 | 22074 ft | 378 kts | 73° |
| 2026-05-08 14:49 | -23.19973 | -44.63541 | 21738 ft | 376 kts | 73° |
| 2026-05-08 14:49 | -23.19371 | -44.60793 | 21426 ft | 372 kts | 73° |
| 2026-05-08 14:50 | -23.18776 | -44.58081 | 21180 ft | 366 kts | 73° |
| 2026-05-08 14:50 | -23.18155 | -44.55421 | 20929 ft | 359 kts | 69° |
| 2026-05-08 14:50 | -23.17215 | -44.52953 | 20690 ft | 350 kts | 61° |
| 2026-05-08 14:50 | -23.16177 | -44.50605 | 20364 ft | 348 kts | 60° |
| 2026-05-08 14:51 | -23.15117 | -44.48250 | 20055 ft | 346 kts | 60° |
| 2026-05-08 14:51 | -23.14063 | -44.45910 | 19725 ft | 344 kts | 60° |
| 2026-05-08 14:51 | -23.13018 | -44.43576 | 19387 ft | 342 kts | 60° |
| 2026-05-08 14:51 | -23.11983 | -44.41254 | 19076 ft | 341 kts | 60° |
| 2026-05-08 14:52 | -23.10953 | -44.38934 | 18752 ft | 340 kts | 60° |
| 2026-05-08 14:52 | -23.08908 | -44.34313 | 18046 ft | 338 kts | 60° |
| 2026-05-08 14:52 | -23.07893 | -44.32019 | 17689 ft | 336 kts | 60° |
| 2026-05-08 14:53 | -23.06886 | -44.29739 | 17338 ft | 334 kts | 60° |
| 2026-05-08 14:53 | -23.05883 | -44.27471 | 17012 ft | 332 kts | 60° |
| 2026-05-08 14:53 | -23.04887 | -44.25218 | 16691 ft | 329 kts | 60° |
| 2026-05-08 14:53 | -23.03907 | -44.23005 | 16379 ft | 327 kts | 61° |
| 2026-05-08 14:54 | -23.02925 | -44.20787 | 16040 ft | 326 kts | 61° |
| 2026-05-08 14:54 | -23.01948 | -44.18582 | 15725 ft | 322 kts | 61° |
| 2026-05-08 14:54 | -23.00979 | -44.16394 | 15413 ft | 320 kts | 62° |
| 2026-05-08 14:54 | -23.00016 | -44.14223 | 15128 ft | 318 kts | 62° |
| 2026-05-08 14:55 | -22.99057 | -44.12060 | 14801 ft | 317 kts | 62° |
| 2026-05-08 14:55 | -22.98101 | -44.09908 | 14490 ft | 316 kts | 62° |
| 2026-05-08 14:55 | -22.97146 | -44.07757 | 14179 ft | 314 kts | 62° |
| 2026-05-08 14:55 | -22.96209 | -44.05646 | 13870 ft | 313 kts | 62° |
| 2026-05-08 14:56 | -22.95268 | -44.03525 | 13548 ft | 311 kts | 62° |
| 2026-05-08 14:56 | -22.94329 | -44.01413 | 13205 ft | 310 kts | 62° |
| 2026-05-08 14:56 | -22.93395 | -43.99314 | 12897 ft | 308 kts | 61° |
| 2026-05-08 14:56 | -22.92467 | -43.97229 | 12584 ft | 305 kts | 61° |
| 2026-05-08 14:57 | -22.91548 | -43.95164 | 12302 ft | 301 kts | 61° |
| 2026-05-08 14:57 | -22.90640 | -43.93128 | 12014 ft | 299 kts | 61° |
| 2026-05-08 14:57 | -22.89739 | -43.91107 | 11693 ft | 296 kts | 60° |
| 2026-05-08 14:57 | -22.88848 | -43.89111 | 11412 ft | 293 kts | 60° |
| 2026-05-08 14:58 | -22.87964 | -43.87126 | 11110 ft | 291 kts | 60° |
| 2026-05-08 14:58 | -22.87083 | -43.85152 | 10817 ft | 291 kts | 60° |
| 2026-05-08 14:58 | -22.86499 | -43.83845 | 10615 ft | 291 kts | 60° |
| 2026-05-08 14:58 | -22.85329 | -43.81228 | 10241 ft | 289 kts | 60° |
| 2026-05-08 14:59 | -22.84467 | -43.79295 | 10117 ft | 281 kts | 60° |
| 2026-05-08 14:59 | -22.82781 | -43.75524 | 9570 ft | 277 kts | 59° |
| 2026-05-08 14:59 | -22.81944 | -43.73654 | 9289 ft | 275 kts | 59° |
| 2026-05-08 15:00 | -22.81117 | -43.71786 | 8993 ft | 275 kts | 62° |
| 2026-05-08 15:00 | -22.80698 | -43.70481 | 8766 ft | 279 kts | 70° |
| 2026-05-08 15:00 | -22.80245 | -43.68430 | 8459 ft | 280 kts | 72° |
| 2026-05-08 15:00 | -22.79800 | -43.66342 | 8118 ft | 281 kts | 71° |
| 2026-05-08 15:01 | -22.79348 | -43.64307 | 7799 ft | 281 kts | 71° |
| 2026-05-08 15:01 | -22.78878 | -43.62241 | 7450 ft | 283 kts | 71° |
| 2026-05-08 15:01 | -22.78397 | -43.60157 | 7056 ft | 286 kts | 70° |
| 2026-05-08 15:01 | -22.77911 | -43.58074 | 6754 ft | 285 kts | 71° |
| 2026-05-08 15:02 | -22.77425 | -43.55989 | 6436 ft | 285 kts | 70° |
| 2026-05-08 15:02 | -22.76793 | -43.53950 | 5997 ft | 283 kts | 62° |
| 2026-05-08 15:02 | -22.75996 | -43.52026 | 5617 ft | 277 kts | 60° |
| 2026-05-08 15:02 | -22.75217 | -43.50179 | 5492 ft | 262 kts | 60° |
| 2026-05-08 15:03 | -22.74488 | -43.48411 | 5331 ft | 251 kts | 60° |
| 2026-05-08 15:03 | -22.73806 | -43.46724 | 5244 ft | 237 kts | 60° |
| 2026-05-08 15:03 | -22.73176 | -43.45152 | 5177 ft | 219 kts | 60° |
| 2026-05-08 15:03 | -22.72585 | -43.43674 | 4895 ft | 212 kts | 59° |
| 2026-05-08 15:04 | -22.72005 | -43.42222 | 4542 ft | 208 kts | 63° |
| 2026-05-08 15:04 | -22.71893 | -43.40656 | 4130 ft | 217 kts | 104° |
| 2026-05-08 15:04 | -22.72665 | -43.39254 | 3823 ft | 217 kts | 123° |
| 2026-05-08 15:04 | -22.73561 | -43.37931 | 3465 ft | 218 kts | 123° |
| 2026-05-08 15:05 | -22.74447 | -43.36608 | 3190 ft | 213 kts | 123° |
| 2026-05-08 15:05 | -22.75293 | -43.35344 | 2840 ft | 208 kts | 123° |
| 2026-05-08 15:05 | -22.76115 | -43.34109 | 2626 ft | 192 kts | 123° |
| 2026-05-08 15:05 | -22.76864 | -43.32984 | 2533 ft | 179 kts | 123° |
| 2026-05-08 15:06 | -22.77599 | -43.31858 | 1967 ft | 191 kts | 122° |
| 2026-05-08 15:06 | -22.78372 | -43.30635 | 1434 ft | 197 kts | 123° |
| 2026-05-08 15:06 | -22.79194 | -43.29434 | 974 ft | 198 kts | 125° |
| 2026-05-08 15:06 | -22.80023 | -43.28243 | 639 ft | 194 kts | 124° |
| 2026-05-08 15:07 | -22.80863 | -43.27003 | 1001 ft | 212 kts | 125° |
| 2026-05-08 15:07 | -22.81777 | -43.25665 | 1348 ft | 232 kts | 126° |
| 2026-05-08 15:07 | -22.82809 | -43.24285 | 1506 ft | 233 kts | 129° |
| 2026-05-08 15:07 | -22.83803 | -43.22969 | 1660 ft | 220 kts | 126° |
| 2026-05-08 15:08 | -22.84737 | -43.21681 | 1925 ft | 216 kts | 126° |
| 2026-05-08 15:08 | -22.85657 | -43.20395 | 2169 ft | 221 kts | 126° |
| 2026-05-08 15:08 | -22.86593 | -43.19080 | 2567 ft | 219 kts | 126° |
| 2026-05-08 15:08 | -22.87485 | -43.17728 | 3040 ft | 221 kts | 113° |
| 2026-05-08 15:09 | -22.87747 | -43.16129 | 3509 ft | 215 kts | 77° |
| 2026-05-08 15:09 | -22.87147 | -43.14709 | 3990 ft | 205 kts | 41° |
| 2026-05-08 15:09 | -22.85994 | -43.13894 | 4488 ft | 194 kts | 21° |
| 2026-05-08 15:09 | -22.84836 | -43.13173 | 4946 ft | 196 kts | 41° |
| 2026-05-08 15:10 | -22.84223 | -43.11839 | 5456 ft | 207 kts | 77° |
| 2026-05-08 15:10 | -22.84457 | -43.10264 | 5895 ft | 222 kts | 113° |
| 2026-05-08 15:10 | -22.85507 | -43.09015 | 6370 ft | 233 kts | 147° |
| 2026-05-08 15:10 | -22.87095 | -43.08450 | 6411 ft | 256 kts | 180° |
| 2026-05-08 15:11 | -22.88911 | -43.08699 | 6448 ft | 274 kts | 195° |
| 2026-05-08 15:11 | -22.90836 | -43.09192 | 6430 ft | 291 kts | 197° |
| 2026-05-08 15:11 | -22.92816 | -43.09809 | 6411 ft | 300 kts | 209° |
| 2026-05-08 15:11 | -22.94357 | -43.11245 | 6443 ft | 290 kts | 243° |
| 2026-05-08 15:12 | -22.94927 | -43.13240 | 6369 ft | 271 kts | 277° |
| 2026-05-08 15:12 | -22.94436 | -43.15131 | 6383 ft | 259 kts | 300° |
| 2026-05-08 15:12 | -22.93679 | -43.16918 | 6378 ft | 260 kts | 298° |
| 2026-05-08 15:12 | -22.92939 | -43.18718 | 6383 ft | 262 kts | 299° |
| 2026-05-08 15:13 | -22.92190 | -43.20537 | 6381 ft | 265 kts | 298° |
| 2026-05-08 15:13 | -22.91434 | -43.22364 | 6372 ft | 266 kts | 298° |
| 2026-05-08 15:13 | -22.90676 | -43.24189 | 6363 ft | 265 kts | 298° |
| 2026-05-08 15:13 | -22.89919 | -43.26011 | 6368 ft | 264 kts | 298° |
| 2026-05-08 15:14 | -22.89166 | -43.27825 | 6388 ft | 263 kts | 298° |
| 2026-05-08 15:14 | -22.88416 | -43.29626 | 6418 ft | 261 kts | 299° |
| 2026-05-08 15:14 | -22.87670 | -43.31418 | 6420 ft | 260 kts | 299° |
| 2026-05-08 15:14 | -22.86932 | -43.33187 | 6416 ft | 262 kts | 299° |
| 2026-05-08 15:15 | -22.86179 | -43.34991 | 6420 ft | 264 kts | 299° |
| 2026-05-08 15:15 | -22.85424 | -43.36801 | 6426 ft | 262 kts | 299° |
| 2026-05-08 15:15 | -22.84688 | -43.38567 | 6418 ft | 254 kts | 299° |
| 2026-05-08 15:15 | -22.83968 | -43.40294 | 6418 ft | 250 kts | 299° |
| 2026-05-08 15:16 | -22.83247 | -43.42017 | 6433 ft | 252 kts | 299° |
| 2026-05-08 15:16 | -22.82518 | -43.43758 | 6408 ft | 254 kts | 298° |
| 2026-05-08 15:16 | -22.81789 | -43.45502 | 6407 ft | 252 kts | 298° |
| 2026-05-08 15:16 | -22.81090 | -43.47172 | 6409 ft | 233 kts | 296° |
| 2026-05-08 15:17 | -22.80440 | -43.48717 | 6341 ft | 217 kts | 302° |
| 2026-05-08 15:17 | -22.79490 | -43.49855 | 6432 ft | 208 kts | 330° |
| 2026-05-08 15:17 | -22.78124 | -43.50435 | 6434 ft | 213 kts | 351° |
| 2026-05-08 15:17 | -22.76628 | -43.50374 | 6076 ft | 224 kts | 13° |
| 2026-05-08 15:18 | -22.75272 | -43.49559 | 5512 ft | 224 kts | 37° |
| 2026-05-08 15:18 | -22.74354 | -43.48223 | 5007 ft | 224 kts | 59° |
| 2026-05-08 15:18 | -22.73755 | -43.46721 | 4636 ft | 212 kts | 60° |
| 2026-05-08 15:18 | -22.73189 | -43.45277 | 4191 ft | 204 kts | 61° |
| 2026-05-08 15:19 | -22.72639 | -43.43880 | 3773 ft | 200 kts | 61° |
| 2026-05-08 15:19 | -22.72103 | -43.42521 | 3360 ft | 192 kts | 62° |
| 2026-05-08 15:19 | -22.71788 | -43.41150 | 3021 ft | 187 kts | 95° |
| 2026-05-08 15:19 | -22.72289 | -43.39858 | 3025 ft | 190 kts | 120° |
| 2026-05-08 15:20 | -22.73048 | -43.38684 | 3011 ft | 190 kts | 123° |
| 2026-05-08 15:20 | -22.73829 | -43.37520 | 3019 ft | 192 kts | 123° |
| 2026-05-08 15:20 | -22.74606 | -43.36361 | 2982 ft | 186 kts | 123° |
| 2026-05-08 15:20 | -22.75355 | -43.35241 | 2916 ft | 183 kts | 123° |
| 2026-05-08 15:21 | -22.76096 | -43.34133 | 2667 ft | 177 kts | 123° |
| 2026-05-08 15:21 | -22.76823 | -43.33039 | 2263 ft | 182 kts | 123° |
| 2026-05-08 15:21 | -22.77567 | -43.31918 | 1803 ft | 183 kts | 124° |
| 2026-05-08 15:21 | -22.78298 | -43.30818 | 1395 ft | 181 kts | 124° |
| 2026-05-08 15:22 | -22.78998 | -43.29742 | 1260 ft | 162 kts | 124° |
| 2026-05-08 15:22 | -22.79655 | -43.28772 | 911 ft | 162 kts | 124° |
| 2026-05-08 15:22 | -22.80323 | -43.27763 | 521 ft | 167 kts | 123° |
| 2026-05-08 15:22 | -22.80987 | -43.26756 | 204 ft | 160 kts | 122° |
| 2026-05-08 15:23 | -22.81608 | -43.25817 | 28 ft | 144 kts | 122° |
| 2026-05-08 15:23 | -22.82118 | -43.25043 | 23 ft | 98 kts | 127° |
| 2026-05-08 15:23 | -22.82325 | -43.24724 | 20 ft | 13 kts | 111° |
| 2026-05-08 15:23 | -22.82349 | -43.24628 | 19 ft | 13 kts | 104° |
| 2026-05-08 15:24 | -22.82363 | -43.24533 | 18 ft | 13 kts | 94° |
| 2026-05-08 15:24 | -22.82359 | -43.24472 | 18 ft | 7 kts | 54° |
| 2026-05-08 15:24 | -22.82314 | -43.24479 | 18 ft | 7 kts | 315° |
| 2026-05-08 15:24 | -22.82285 | -43.24521 | 19 ft | 7 kts | 304° |
| 2026-05-08 15:25 | -22.82257 | -43.24564 | 19 ft | 8 kts | 306° |
| 2026-05-08 15:25 | -22.82217 | -43.24624 | 20 ft | 12 kts | 306° |
| 2026-05-08 15:25 | -22.82163 | -43.24705 | 18 ft | 12 kts | 308° |
| 2026-05-08 15:25 | -22.82085 | -43.24712 | 19 ft | 12 kts | 31° |
| 2026-05-08 15:26 | -22.82015 | -43.24659 | 22 ft | 12 kts | 35° |
| 2026-05-08 15:26 | -22.81945 | -43.24610 | 20 ft | 12 kts | 19° |
| 2026-05-08 15:26 | -22.81867 | -43.24595 | 20 ft | 12 kts | 32° |
| 2026-05-08 15:26 | -22.81798 | -43.24555 | 20 ft | 11 kts | 5° |
| 2026-05-08 15:27 | -22.81730 | -43.24591 | 21 ft | 11 kts | 323° |
| 2026-05-08 15:27 | -22.81682 | -43.24652 | 22 ft | 11 kts | 306° |
| 2026-05-08 15:27 | -22.81638 | -43.24721 | 21 ft | 12 kts | 304° |
| 2026-05-08 15:27 | -22.81588 | -43.24800 | 21 ft | 12 kts | 304° |
| 2026-05-08 15:28 | -22.81525 | -43.24867 | 21 ft | 13 kts | 330° |
| 2026-05-08 15:28 | -22.81437 | -43.24898 | 21 ft | 13 kts | 349° |
| 2026-05-08 15:28 | -22.81384 | -43.24902 | 23 ft | 5 kts | 0° |
| 2026-05-08 15:28 | -22.81372 | -43.24895 | 21 ft | 1 kts | 48° |
| 2026-05-08 15:29 | -22.81370 | -43.24890 | 21 ft | 1 kts | 56° |
| 2026-05-08 15:29 | -22.81370 | -43.24873 | 21 ft | 3 kts | 104° |
| 2026-05-08 15:29 | -22.81374 | -43.24857 | 21 ft | 0 kts | 103° |
| 2026-05-08 15:44 | -22.81374 | -43.24858 | 21 ft | 0 kts | 103° |